Latest Weather Observations for McCluer Island

IDD60801

Issued at 8:31 pm CST Friday 6 March 2015 (issued every 30 minutes, with the page automatically refreshed every 10 minutes)

About weather observations | Map of weather stations | Latest weather observations for NT | Other Formats
Station Details ID: 014274 Name: MCCLUER ISLAND Lat: -11.05 Lon: 132.98 Height: 1.4 m
Data from the previous 72 hours. | See also: Recent months at McCluer Island
Date/Time
CST
Temp
°C
App
Temp
°C
Dew
Point
Rel
Hum
%
Delta-T
°C
Wind Press
QNH
hPa
Press
MSL
hPa
Rain
since 9 am
mm
Dir
 
Spd
km/h
Gust
km/h
Spd
kts
Gust
kts
06/08:30pm 29.1 - 30.3 - - WNW 26 28 14 15 1006.8 - 0.0
06/08:00pm 29.0 - 30.2 - - WNW 24 28 13 15 1006.6 - 0.0
06/07:30pm 29.1 - 30.3 - - WNW 24 28 13 15 1006.3 - 0.0
06/07:00pm 29.2 - 30.4 - - WNW 24 26 13 14 1005.7 - 0.0
06/06:30pm 29.3 - 30.5 - - WNW 24 28 13 15 1005.0 - 0.0
06/06:00pm 29.8 - 31.0 - - WNW 22 24 12 13 1004.8 1004.8 0.0
06/05:30pm 30.3 - 31.5 - - NW 19 24 10 13 1004.7 - 0.0
06/05:00pm 30.9 - 32.1 - - NW 19 20 10 11 1004.4 - 0.0
06/04:30pm 30.7 - 31.9 - - NW 17 20 9 11 1004.6 - 0.0
06/04:00pm 31.0 - 32.2 - - NW 17 19 9 10 1004.8 - 0.0
06/03:30pm 30.9 - 32.1 - - NW 20 24 11 13 1005.2 - 0.0
06/03:00pm 30.9 - 32.1 - - NW 22 26 12 14 1005.7 1005.7 0.0
06/02:30pm 31.2 - 32.4 - - WNW 22 26 12 14 1005.8 - 0.0
06/02:00pm 31.7 - 32.9 - - WNW 19 22 10 12 1006.2 - 0.0
06/01:30pm 31.3 - 32.5 - - WNW 20 20 11 11 1006.5 - 0.0
06/01:00pm 31.2 - 32.4 - - W 17 20 9 11 1006.8 - 0.0
06/12:30pm 31.3 - - - - WNW 19 22 10 12 1007.0 - 0.0
06/12:00pm 31.4 - - - - WNW 17 20 9 11 1007.5 1007.5 0.0
06/11:30am 31.3 - - - - WNW 19 20 10 11 1007.6 - 0.0
06/11:00am 30.8 - - - - W 13 17 7 9 1007.7 - 0.0
06/10:30am 30.4 - - - - W 15 17 8 9 1008.0 - 0.0
06/10:00am 30.1 - - - - WSW 17 20 9 11 1008.0 - 0.0
06/09:30am 29.5 - - - - WSW 20 22 11 12 1008.0 - 0.0
06/09:00am 29.2 - - - - WSW 19 22 10 12 1007.9 1007.9 0.0
06/08:30am 28.9 - - - - WSW 19 22 10 12 1007.7 - 0.0
06/08:00am 28.8 - - - - W 19 22 10 12 1007.2 - 0.0
06/07:30am 28.5 - - - - W 19 24 10 13 1006.9 - 0.0
06/07:00am 28.5 - 29.7 - - W 19 20 10 11 1006.7 - 0.0
06/06:30am 28.4 - - - - W 19 20 10 11 1006.6 - 0.0
06/06:00am 28.4 - - - - WNW 20 22 11 12 1006.4 1006.4 0.0
06/05:30am 28.2 - - - - W 13 17 7 9 1006.5 - 0.0
06/05:00am 28.3 - - - - W 15 19 8 10 1006.4 - 0.0
06/04:30am 28.3 - - - - W 15 17 8 9 1006.3 - 0.0
06/04:00am 28.3 - - - - W 15 20 8 11 1006.4 - 0.0
06/03:30am 28.4 - - - - W 13 17 7 9 1006.7 - 0.0
06/03:00am 28.5 - - - - W 15 20 8 11 1007.0 1007.0 0.0
06/02:30am 28.4 - - - - W 17 20 9 11 1007.2 - 0.0
06/02:00am 28.3 - - - - WNW 17 19 9 10 1007.5 - 0.0
06/01:30am 28.3 - - - - NW 15 19 8 10 1007.9 - 0.0
06/01:00am 28.2 - - - - NNW 17 20 9 11 1008.0 - 0.0
06/12:30am 28.5 - - - - NNW 19 20 10 11 1008.3 - 0.0
06/12:00am 28.2 - - - - NNW 15 17 8 9 1008.6 1008.6 0.0
 
Date/Time
CST
Temp
°C
App
Temp
°C
Dew
Point
Rel
Hum
%
Delta-T
°C
Wind Press
QNH
hPa
Press
MSL
hPa
Rain
since 9 am
mm
Dir
 
Spd
km/h
Gust
km/h
Spd
kts
Gust
kts
05/11:30pm 28.3 - - - - NNW 17 19 9 10 1009.0 - 0.0
05/11:00pm 28.4 - 29.6 - - NNW 13 15 7 8 1009.1 - 0.0
05/10:30pm 28.5 - 29.7 - - NW 11 13 6 7 1009.0 - 0.0
05/10:00pm 28.6 - 29.8 - - WNW 9 11 5 6 1008.7 - 0.0
05/09:30pm 28.5 - 29.7 - - WNW 9 11 5 6 1008.4 - 0.0
05/09:00pm 28.6 - 29.8 - - W 6 7 3 4 1008.3 1008.3 0.0
05/08:30pm 28.7 - 29.9 - - WNW 7 11 4 6 1008.2 - 0.0
05/08:00pm 28.8 - 30.0 - - NW 9 15 5 8 1007.9 - 0.0
05/07:30pm 28.9 - 30.1 - - NW 11 15 6 8 1007.5 - 0.0
05/07:00pm 28.9 - 30.1 - - NNW 15 17 8 9 1006.6 - 0.0
05/06:30pm 29.3 - 30.5 - - N 11 13 6 7 1006.2 - 0.0
05/06:00pm 29.8 - 31.0 - - NNW 7 11 4 6 1005.7 1005.7 0.0
05/05:30pm 30.5 - 31.7 - - NNW 7 9 4 5 1005.7 - 0.0
05/05:00pm 30.2 - - - - NNW 7 11 4 6 1005.6 - 0.0
05/04:30pm 30.7 - - - - NNW 7 9 4 5 1005.7 - 0.0
05/04:00pm 30.3 - - - - N 9 11 5 6 1005.8 - 0.0
05/03:30pm 29.8 - - - - N 9 11 5 6 1006.1 - 0.0
05/03:00pm 30.6 - - - - NNW 4 7 2 4 1006.2 1006.2 0.0
05/02:30pm 30.6 - - - - CALM 0 6 0 3 1006.4 - 0.0
05/02:00pm 30.5 - 31.7 - - W 6 7 3 4 1006.7 - 0.0
05/01:30pm 30.3 - 31.5 - - W 2 7 1 4 1007.1 - 0.0
05/01:00pm 30.5 - 31.7 - - WSW 6 9 3 5 1007.8 - 0.0
05/12:30pm 31.0 - - - - W 4 7 2 4 1008.2 - 0.0
05/12:00pm 30.5 - - - - SSW 9 11 5 6 1008.5 1008.5 0.0
05/11:30am 30.4 - - - - SSW 9 15 5 8 1008.6 - 0.0
05/11:00am 30.9 - - - - S 13 17 7 9 1008.7 - 0.0
05/10:30am 30.7 - - - - SSW 15 19 8 10 1008.9 - 0.0
05/10:00am 30.1 - - - - SSW 15 19 8 10 1009.3 - 0.0
05/09:30am 30.1 - - - - SSW 15 19 8 10 1009.4 - 0.0
05/09:00am 29.9 - - - - SSW 13 17 7 9 1009.3 1009.3 0.0
05/08:30am 28.3 - - - - SW 15 19 8 10 1008.9 - 0.0
05/08:00am 28.2 - - - - SW 19 22 10 12 1008.5 - 0.0
05/07:30am 28.1 - - - - SW 20 24 11 13 1008.1 - 0.0
05/07:00am 28.0 - - - - WSW 19 20 10 11 1007.7 - 0.0
05/06:30am 27.9 - - - - WSW 20 24 11 13 1007.6 - 0.0
05/06:00am 28.2 - - - - WSW 20 24 11 13 1007.6 1007.6 0.0
05/05:30am 28.2 - - - - W 17 20 9 11 1007.7 - 0.0
05/05:00am 28.2 - - - - WNW 17 19 9 10 1007.5 - 0.0
05/04:30am 28.2 - - - - WNW 15 17 8 9 1007.2 - 0.0
05/04:00am 28.2 - - - - NW 15 17 8 9 1007.1 - 0.0
05/03:30am 28.0 - - - - NW 17 20 9 11 1007.1 - 0.0
05/03:00am 28.1 - - - - NNW 20 24 11 13 1007.5 1007.5 0.0
05/02:30am 28.2 - - - - NW 15 19 8 10 1007.7 - 0.0
05/02:00am 28.3 - - - - WNW 13 17 7 9 1008.1 - 0.0
05/01:30am 28.3 - - - - WNW 17 19 9 10 1008.3 - 0.0
05/01:00am 28.4 - - - - WNW 17 19 9 10 1008.2 - 0.0
05/12:30am 28.5 - - - - WNW 15 17 8 9 1008.7 - 0.0
05/12:00am 28.5 - - - - WNW 15 17 8 9 1009.0 1009.0 0.0
 
Date/Time
CST
Temp
°C
App
Temp
°C
Dew
Point
Rel
Hum
%
Delta-T
°C
Wind Press
QNH
hPa
Press
MSL
hPa
Rain
since 9 am
mm
Dir
 
Spd
km/h
Gust
km/h
Spd
kts
Gust
kts
04/11:30pm 28.6 - - - - NW 15 17 8 9 1009.4 - 0.0
04/11:00pm 28.6 - - - - NW 13 17 7 9 1009.6 - 0.0
04/10:30pm 28.7 - - - - WNW 13 15 7 8 1009.5 - 0.0
04/10:00pm 28.6 - - - - WNW 15 17 8 9 1009.3 - 0.0
04/09:30pm 28.6 - - - - WNW 15 17 8 9 1009.1 - 0.0
04/09:00pm 28.6 - - - - NW 11 13 6 7 1008.6 1008.6 0.0
04/08:30pm 28.6 - - - - NW 13 15 7 8 1008.5 - 0.0
04/08:00pm 28.8 - - - - NW 13 15 7 8 1007.8 - 0.0
04/07:30pm 28.7 - - - - NW 13 15 7 8 1007.7 - 0.0
04/07:00pm 28.8 - - - - NW 13 15 7 8 1007.5 - 0.0
04/06:30pm 28.8 - - - - WNW 13 15 7 8 1007.3 - 0.0
04/06:00pm 28.8 - - - - NW 9 13 5 7 1007.3 1007.3 0.0
04/05:30pm 28.9 - - - - W 15 19 8 10 1006.9 - 0.0
04/05:00pm 29.1 - - - - NW 13 15 7 8 1006.3 - 0.0
04/04:30pm 29.5 - - - - NW 11 13 6 7 1006.4 - 0.0
04/04:00pm 29.5 - - - - NW 11 13 6 7 1006.3 - 0.0
04/03:30pm 29.9 - - - - NW 9 11 5 6 1006.3 - 0.0
04/03:00pm 30.7 - - - - WNW 13 15 7 8 1006.4 1006.4 0.0
04/02:30pm 29.9 - - - - WNW 13 15 7 8 1006.8 - 0.0
04/02:00pm 30.2 - - - - WNW 17 20 9 11 1007.2 - 0.0
04/01:30pm 29.0 - - - - W 20 26 11 14 1007.5 - 0.0
04/01:00pm 29.5 - - - - W 19 20 10 11 1007.9 - 0.0
04/12:30pm 29.5 - - - - SW 13 17 7 9 1008.2 - 0.0
04/12:00pm 29.5 - - - - SSW 11 13 6 7 1008.6 1008.6 0.0
04/11:30am 29.8 - - - - SSW 15 20 8 11 1008.8 - 0.0
04/11:00am 30.0 - - - - WSW 7 11 4 6 1009.0 - 0.0
04/10:30am 29.7 - - - - W 9 11 5 6 1009.2 - 0.0
04/10:00am 29.4 - - - - WNW 13 17 7 9 1009.2 - 0.0
04/09:30am 29.2 - - - - SE 9 11 5 6 1009.0 - 0.0
04/09:00am 28.7 - - - - SW 11 13 6 7 1008.8 1008.8 4.6
04/08:30am 28.8 - - - - WSW 13 15 7 8 1008.2 - 4.6
04/08:00am 27.9 - - - - W 7 11 4 6 1008.0 - 4.6
04/07:30am 27.5 - - - - SW 11 17 6 9 1007.6 - 4.6
04/07:00am 27.4 - - - - SSW 19 22 10 12 1007.3 - 4.6
04/06:30am 27.4 - - - - W 15 17 8 9 1006.9 - 4.6
04/06:00am 26.9 - - - - W 15 20 8 11 1006.8 1006.8 4.6
04/05:30am 27.1 - - - - NW 19 20 10 11 1006.5 - 3.2
04/05:00am 27.8 - - - - W 13 17 7 9 1006.3 - 3.2
04/04:30am 27.8 - - - - NW 11 15 6 8 1006.2 - 3.2
04/04:00am 27.8 - - - - NW 13 15 7 8 1006.1 - 3.2
04/03:30am 27.8 - - - - NNW 15 17 8 9 1005.9 - 3.2
04/03:00am 28.1 - - - - NNW 15 17 8 9 1006.0 1006.0 3.2
04/02:30am 28.1 - - - - NNW 17 20 9 11 1006.3 - 3.2
04/02:00am 27.9 - - - - NNW 15 17 8 9 1006.7 - 3.2
04/01:30am 28.1 - - - - NNW 15 19 8 10 1006.8 - 3.2
04/01:00am 27.9 - - - - NNW 17 20 9 11 1006.8 - 3.2
04/12:30am 28.0 - - - - N 11 15 6 8 1007.2 - 3.2
04/12:00am 28.2 - - - - N 9 11 5 6 1007.7 1007.7 3.2
 
Date/Time
CST
Temp
°C
App
Temp
°C
Dew
Point
Rel
Hum
%
Delta-T
°C
Wind Press
QNH
hPa
Press
MSL
hPa
Rain
since 9 am
mm
Dir
 
Spd
km/h
Gust
km/h
Spd
kts
Gust
kts
03/11:30pm 28.1 - - - - N 9 13 5 7 1007.7 - 3.2
03/11:00pm 28.2 - - - - N 13 17 7 9 1007.8 - 3.2
03/10:30pm 27.9 - - - - NNE 11 11 6 6 1007.8 - 3.2
03/10:00pm 27.8 - - - - NE 9 11 5 6 1007.6 - 3.2
03/09:30pm 27.5 - - - - ENE 11 13 6 7 1007.5 - 3.2
03/09:00pm 27.4 - - - - ENE 11 13 6 7 1007.3 1007.3 3.2

Other Formats:

Comma delimited format used in spreadsheet applications
http://www.bom.gov.au/fwo/IDD60801/IDD60801.94135.axf

JavaScript Object Notation format (JSON) in row-major order
http://www.bom.gov.au/fwo/IDD60801/IDD60801.94135.json